createdAt,value
2022-08-26T00:02:17.404Z,97236.97
2022-08-26T00:04:50.509Z,97237.84
2022-08-26T00:07:19.169Z,97238.09
2022-08-26T00:09:47.590Z,97227.19
2022-08-26T00:12:15.824Z,97232.28
2022-08-26T00:14:44.019Z,97237.72
2022-08-26T00:17:12.299Z,97242.13
2022-08-26T00:19:41.399Z,97238.78
2022-08-26T00:22:11.306Z,97234.78
2022-08-26T00:24:39.848Z,97236.75
2022-08-26T00:27:16.198Z,97231.28
2022-08-26T00:29:45.565Z,97235.19
2022-08-26T00:32:13.765Z,97236.25
2022-08-26T00:34:42.866Z,97235.28
2022-08-26T00:37:15.672Z,97230.63
2022-08-26T00:39:44.365Z,97226.59
2022-08-26T00:42:13.950Z,97229.63
2022-08-26T00:44:42.186Z,97229.31
2022-08-26T00:47:23.759Z,97228.13
2022-08-26T00:49:52.568Z,97227.34
2022-08-26T00:52:23.421Z,97225.44
2022-08-26T00:54:55.065Z,97232.25
2022-08-26T00:57:24.325Z,97224.56
2022-08-26T00:59:54.697Z,97233.88
2022-08-26T01:02:23.243Z,97236.13
2022-08-26T01:04:54.422Z,97228.44
2022-08-26T01:07:27.384Z,97223.06
2022-08-26T01:09:56.104Z,97228.56
2022-08-26T01:12:25.521Z,97231.97
2022-08-26T01:14:53.904Z,97223.63
2022-08-26T01:17:22.180Z,97228.09
2022-08-26T01:19:52.330Z,97225.56
2022-08-26T01:22:23.097Z,97230.09
2022-08-26T01:24:58.485Z,97226.59
2022-08-26T01:27:32.548Z,97226.59
2022-08-26T01:30:01.577Z,97229.22
2022-08-26T01:32:33.417Z,97232.59
2022-08-26T01:35:02.256Z,97230.41
2022-08-26T01:37:35.026Z,97228.03
2022-08-26T01:40:06.426Z,97231.75
2022-08-26T01:42:35.802Z,97224.44
2022-08-26T01:45:07.624Z,97225.13
2022-08-26T01:47:36.883Z,97225.44
2022-08-26T01:50:09.541Z,97229.97
2022-08-26T01:52:41.466Z,97230.97
2022-08-26T01:55:13.642Z,97225.56
2022-08-26T01:57:57.416Z,97230.00
2022-08-26T02:00:26.583Z,97231.28
2022-08-26T02:03:17.212Z,97226.84
2022-08-26T02:05:46.459Z,97230.47
2022-08-26T02:08:24.518Z,97232.13
2022-08-26T02:10:56.228Z,97231.16
2022-08-26T02:13:26.693Z,97223.75
2022-08-26T02:15:55.859Z,97228.59
2022-08-26T02:18:24.755Z,97226.78
2022-08-26T02:20:54.543Z,97227.34
2022-08-26T02:23:24.379Z,97227.03
2022-08-26T02:25:57.979Z,97222.16
2022-08-26T02:28:28.325Z,97226.16
2022-08-26T02:30:56.921Z,97233.50
2022-08-26T02:33:25.113Z,97225.84
2022-08-26T02:35:53.293Z,97223.16
2022-08-26T02:38:21.558Z,97230.72
2022-08-26T02:40:49.760Z,97225.97
2022-08-26T02:43:31.549Z,97223.00
2022-08-26T02:46:02.408Z,97212.69
2022-08-26T02:48:31.401Z,97218.50
2022-08-26T02:51:01.839Z,97213.25
2022-08-26T02:53:31.891Z,97213.47
2022-08-26T02:56:00.871Z,97209.69
2022-08-26T02:58:30.912Z,97216.13
2022-08-26T03:00:59.184Z,97210.66
2022-08-26T03:03:27.808Z,97214.97
2022-08-26T03:05:56.016Z,97216.06
2022-08-26T03:08:24.463Z,97206.34
2022-08-26T03:10:53.546Z,97208.78
2022-08-26T03:13:21.855Z,97213.34
2022-08-26T03:15:51.645Z,97207.19
2022-08-26T03:18:19.841Z,97207.41
2022-08-26T03:20:48.899Z,97208.38
2022-08-26T03:23:17.073Z,97202.94
2022-08-26T03:25:50.339Z,97201.41
2022-08-26T03:28:19.364Z,97202.84
2022-08-26T03:30:48.076Z,97204.78
2022-08-26T03:33:19.159Z,97195.13
2022-08-26T03:35:50.497Z,97187.66
2022-08-26T03:38:19.940Z,97195.59
2022-08-26T03:40:48.225Z,97192.31
2022-08-26T03:43:17.223Z,97199.47
2022-08-26T03:45:45.972Z,97205.31
2022-08-26T03:48:14.469Z,97210.59
2022-08-26T03:50:44.598Z,97202.84
2022-08-26T03:53:13.433Z,97202.28
2022-08-26T03:55:42.056Z,97196.25
2022-08-26T03:58:12.089Z,97200.22
2022-08-26T04:00:40.775Z,97203.66
2022-08-26T04:03:09.993Z,97200.44
2022-08-26T04:05:39.011Z,97201.56
2022-08-26T04:08:08.530Z,97195.59
2022-08-26T04:10:38.946Z,97193.16
2022-08-26T04:13:07.456Z,97200.28
2022-08-26T04:15:35.808Z,97209.00
2022-08-26T04:18:04.530Z,97197.97
2022-08-26T04:20:33.087Z,97202.47
2022-08-26T04:23:01.451Z,97201.59
2022-08-26T04:25:31.254Z,97201.31
2022-08-26T04:27:59.568Z,97197.00
2022-08-26T04:30:27.813Z,97199.75
2022-08-26T04:32:56.077Z,97198.75
2022-08-26T04:35:26.112Z,97203.81
2022-08-26T04:37:55.519Z,97201.97
2022-08-26T04:40:24.099Z,97201.09
2022-08-26T04:42:56.466Z,97203.00
2022-08-26T04:45:25.350Z,97203.47
2022-08-26T04:47:56.376Z,97203.31
2022-08-26T04:50:27.063Z,97209.81
2022-08-26T04:52:56.231Z,97204.06
2022-08-26T04:55:37.291Z,97200.63
2022-08-26T04:58:10.137Z,97202.06
2022-08-26T05:00:39.321Z,97205.34
2022-08-26T05:03:10.534Z,97207.38
2022-08-26T05:05:41.121Z,97211.06
2022-08-26T05:08:11.301Z,97204.25
2022-08-26T05:10:44.011Z,97209.34
2022-08-26T05:13:15.536Z,97210.75
2022-08-26T05:15:44.939Z,97212.91
2022-08-26T05:18:14.979Z,97211.44
2022-08-26T05:20:45.532Z,97210.19
2022-08-26T05:23:15.615Z,97218.03
2022-08-26T05:25:46.227Z,97207.56
2022-08-26T05:28:17.579Z,97210.63
2022-08-26T05:30:46.891Z,97216.69
2022-08-26T05:33:15.414Z,97222.28
2022-08-26T05:35:44.262Z,97217.72
2022-08-26T05:38:15.641Z,97210.44
2022-08-26T05:40:47.174Z,97206.31
2022-08-26T05:43:18.027Z,97206.63
2022-08-26T05:45:50.482Z,97210.69
2022-08-26T05:48:22.698Z,97208.06
2022-08-26T05:50:54.230Z,97213.88
2022-08-26T05:53:25.942Z,97208.31
2022-08-26T05:55:55.958Z,97208.03
2022-08-26T05:58:26.785Z,97210.28
2022-08-26T06:01:00.241Z,97209.19
2022-08-26T06:03:29.342Z,97210.88
2022-08-26T06:05:57.903Z,97212.78
2022-08-26T06:08:26.230Z,97214.38
2022-08-26T06:10:56.848Z,97207.47
2022-08-26T06:13:30.266Z,97206.91
2022-08-26T06:16:00.866Z,97209.78
2022-08-26T06:18:32.827Z,97208.53
2022-08-26T06:21:01.239Z,97215.63
2022-08-26T06:23:47.307Z,97216.16
2022-08-26T06:26:16.750Z,97214.16
2022-08-26T06:28:46.600Z,97211.44
2022-08-26T06:31:15.687Z,97200.47
2022-08-26T06:33:45.362Z,97206.31
2022-08-26T06:36:18.696Z,97193.03
2022-08-26T06:38:48.124Z,97196.31
2022-08-26T06:41:17.222Z,97187.72
2022-08-26T06:43:47.058Z,97196.94
2022-08-26T06:46:17.656Z,97194.19
2022-08-26T06:48:46.416Z,97193.41
2022-08-26T06:51:16.440Z,97189.56
2022-08-26T06:53:47.107Z,97201.13
2022-08-26T06:56:18.101Z,97198.75
2022-08-26T06:58:48.754Z,97192.56
2022-08-26T07:01:19.642Z,97197.16
2022-08-26T07:03:48.775Z,97192.81
2022-08-26T07:06:19.451Z,97193.56
2022-08-26T07:08:47.677Z,97192.09
2022-08-26T07:11:16.944Z,97186.78
2022-08-26T07:13:45.129Z,97184.16
2022-08-26T07:16:17.787Z,97187.50
2022-08-26T07:18:46.834Z,97187.50
2022-08-26T07:21:17.312Z,97180.66
2022-08-26T07:23:46.619Z,97180.78
2022-08-26T07:26:18.683Z,97178.50
2022-08-26T07:28:48.533Z,97173.56
2022-08-26T07:31:18.703Z,97171.84
2022-08-26T07:33:47.211Z,97178.94
2022-08-26T07:36:16.078Z,97168.25
2022-08-26T07:38:45.457Z,97176.94
2022-08-26T07:41:14.469Z,97177.31
2022-08-26T07:43:43.034Z,97174.34
2022-08-26T07:46:16.490Z,97175.00
2022-08-26T07:48:46.611Z,97178.34
2022-08-26T07:51:15.557Z,97181.81
2022-08-26T07:53:43.767Z,97170.03
2022-08-26T07:56:16.337Z,97172.22
2022-08-26T07:58:47.690Z,97172.16
2022-08-26T08:01:18.735Z,97166.47
2022-08-26T08:03:51.627Z,97167.56
2022-08-26T08:06:20.183Z,97167.84
2022-08-26T08:08:50.869Z,97175.09
2022-08-26T08:11:21.274Z,97176.03
2022-08-26T08:13:55.960Z,97164.34
2022-08-26T08:16:25.474Z,97158.13
2022-08-26T08:18:56.492Z,97166.19
2022-08-26T08:21:25.429Z,97155.72
2022-08-26T08:23:54.768Z,97151.38
2022-08-26T08:26:23.258Z,97152.28
2022-08-26T08:28:52.144Z,97151.81
2022-08-26T08:31:33.235Z,97150.56
2022-08-26T08:34:11.302Z,97153.09
2022-08-26T08:36:39.888Z,97156.03
2022-08-26T08:39:08.158Z,97157.56
2022-08-26T08:41:46.370Z,97153.63
2022-08-26T08:44:18.471Z,97147.75
2022-08-26T08:46:48.475Z,97146.28
2022-08-26T08:49:19.951Z,97144.94
2022-08-26T08:51:52.757Z,97147.25
2022-08-26T08:54:22.262Z,97150.09
2022-08-26T08:56:53.812Z,97140.75
2022-08-26T08:59:24.186Z,97139.44
2022-08-26T09:02:03.122Z,97139.75
2022-08-26T09:04:46.602Z,97137.00
2022-08-26T09:07:19.278Z,97141.13
2022-08-26T09:09:50.602Z,97140.66
2022-08-26T09:12:29.240Z,97142.38
2022-08-26T09:15:02.813Z,97140.53
2022-08-26T09:17:40.062Z,97140.44
2022-08-26T09:20:15.695Z,97143.75
2022-08-26T09:22:44.167Z,97139.22
2022-08-26T09:25:15.047Z,97131.69
2022-08-26T09:27:46.074Z,97134.97
2022-08-26T09:30:17.179Z,97136.38
2022-08-26T09:32:59.753Z,97128.53
2022-08-26T09:35:32.034Z,97127.97
2022-08-26T09:38:00.671Z,97126.06
2022-08-26T09:40:35.020Z,97124.97
2022-08-26T09:43:10.110Z,97125.75
2022-08-26T09:45:38.988Z,97126.63
2022-08-26T09:48:08.348Z,97125.44
2022-08-26T09:50:40.027Z,97126.81
2022-08-26T09:53:17.160Z,97131.31
2022-08-26T09:55:50.388Z,97124.31
2022-08-26T09:58:33.832Z,97123.94
2022-08-26T10:01:04.604Z,97109.63
2022-08-26T10:03:36.097Z,97115.88
2022-08-26T10:06:08.725Z,97115.19
2022-08-26T10:08:40.997Z,97114.28
2022-08-26T10:11:29.237Z,97109.28
2022-08-26T10:14:00.938Z,97105.22
2022-08-26T10:16:33.633Z,97104.75
2022-08-26T10:19:07.713Z,97109.28
2022-08-26T10:21:40.146Z,97100.47
2022-08-26T10:24:11.269Z,97102.66
2022-08-26T10:26:43.542Z,97101.06
2022-08-26T10:29:15.306Z,97086.84
2022-08-26T10:31:46.404Z,97092.34
2022-08-26T10:34:18.086Z,97086.06
2022-08-26T10:37:13.824Z,97087.00
2022-08-26T10:39:46.702Z,97085.75
2022-08-26T10:42:20.735Z,97092.09
2022-08-26T10:44:51.600Z,97082.84
2022-08-26T10:47:22.922Z,97079.41
2022-08-26T10:49:57.511Z,97075.41
2022-08-26T10:52:37.918Z,97076.69
2022-08-26T10:55:13.153Z,97077.16
2022-08-26T10:57:47.881Z,97076.50
2022-08-26T11:00:37.152Z,97076.59
2022-08-26T11:03:10.816Z,97069.66
2022-08-26T11:06:17.060Z,97065.88
2022-08-26T11:08:51.105Z,97064.25
2022-08-26T11:11:42.721Z,97064.09
2022-08-26T11:14:11.824Z,97063.16
2022-08-26T11:16:43.255Z,97058.84
2022-08-26T11:19:13.528Z,97057.22
2022-08-26T11:21:50.852Z,97057.94
2022-08-26T11:25:00.418Z,97052.03
2022-08-26T11:27:57.734Z,97055.91
2022-08-26T11:30:44.723Z,97048.41
2022-08-26T11:33:51.173Z,97049.78
2022-08-26T11:36:55.729Z,97044.22
2022-08-26T11:39:28.826Z,97050.34
2022-08-26T11:42:00.940Z,97034.03
2022-08-26T11:44:38.214Z,97033.41
2022-08-26T11:47:11.536Z,97041.28
2022-08-26T11:49:40.170Z,97024.28
2022-08-26T11:52:20.700Z,97028.22
2022-08-26T11:55:02.832Z,97028.00
2022-08-26T11:57:31.751Z,97031.72
2022-08-26T12:00:01.415Z,97029.59
2022-08-26T12:02:29.926Z,97020.16
2022-08-26T12:04:58.410Z,97024.34
2022-08-26T12:07:30.110Z,97020.28
2022-08-26T12:10:02.114Z,97010.34
2022-08-26T12:12:34.946Z,97012.19
2022-08-26T12:15:16.120Z,97004.16
2022-08-26T12:17:45.489Z,97003.88
2022-08-26T12:20:30.310Z,96998.59
2022-08-26T12:23:01.195Z,96992.69
2022-08-26T12:25:32.939Z,96991.94
2022-08-26T12:28:06.041Z,96995.34
2022-08-26T12:30:34.560Z,96992.06
2022-08-26T12:33:23.090Z,96981.22
2022-08-26T12:35:56.277Z,96990.44
2022-08-26T12:38:27.562Z,96982.16
2022-08-26T12:40:57.005Z,96978.97
2022-08-26T12:43:43.493Z,96979.09
2022-08-26T12:46:13.764Z,96974.41
2022-08-26T12:48:44.240Z,96980.16
2022-08-26T12:51:21.379Z,96978.41
2022-08-26T12:53:51.416Z,96973.44
2022-08-26T12:56:23.577Z,96970.78
2022-08-26T12:59:06.191Z,96964.97
2022-08-26T13:01:40.644Z,96949.09
2022-08-26T13:04:09.078Z,96957.38
2022-08-26T13:06:37.327Z,96954.00
2022-08-26T13:09:31.459Z,96944.50
2022-08-26T13:11:59.812Z,96942.63
2022-08-26T13:14:30.523Z,96943.00
2022-08-26T13:16:59.101Z,96938.19
2022-08-26T13:19:27.544Z,96939.28
2022-08-26T13:21:57.498Z,96943.19
2022-08-26T13:24:30.142Z,96935.09
2022-08-26T13:26:58.544Z,96927.31
2022-08-26T13:29:26.763Z,96925.50
2022-08-26T13:31:55.132Z,96925.72
2022-08-26T13:34:24.569Z,96924.81
2022-08-26T13:36:54.718Z,96926.53
2022-08-26T13:39:23.214Z,96918.16
2022-08-26T13:41:53.621Z,96916.97
2022-08-26T13:44:21.897Z,96912.97
2022-08-26T13:46:50.547Z,96906.34
2022-08-26T13:49:18.771Z,96909.00
2022-08-26T13:51:47.015Z,96912.91
2022-08-26T13:54:15.606Z,96913.97
2022-08-26T13:56:43.933Z,96903.09
2022-08-26T13:59:13.575Z,96907.69
2022-08-26T14:01:43.308Z,96898.78
2022-08-26T14:04:11.535Z,96896.38
2022-08-26T14:06:39.798Z,96894.75
2022-08-26T14:09:08.072Z,96890.16
2022-08-26T14:11:54.169Z,96894.69
2022-08-26T14:14:25.127Z,96884.88
2022-08-26T14:17:00.006Z,96889.69
2022-08-26T14:19:30.069Z,96888.88
2022-08-26T14:22:01.053Z,96894.72
2022-08-26T14:24:30.016Z,96891.38
2022-08-26T14:26:58.712Z,96880.25
2022-08-26T14:29:28.413Z,96870.91
2022-08-26T14:31:57.935Z,96892.81
2022-08-26T14:34:26.302Z,96876.63
2022-08-26T14:36:54.519Z,96874.19
2022-08-26T14:39:22.769Z,96866.50
2022-08-26T14:41:55.038Z,96873.47
2022-08-26T14:44:24.940Z,96877.38
2022-08-26T14:46:54.909Z,96867.16
2022-08-26T14:49:24.598Z,96870.31
2022-08-26T14:51:52.880Z,96869.84
2022-08-26T14:54:20.976Z,96865.47
2022-08-26T14:56:51.307Z,96870.25
2022-08-26T14:59:21.446Z,96860.06
2022-08-26T15:01:50.059Z,96864.72
2022-08-26T15:04:19.814Z,96866.81
2022-08-26T15:06:48.360Z,96865.53
2022-08-26T15:09:17.273Z,96859.88
2022-08-26T15:11:47.754Z,96851.69
2022-08-26T15:14:19.477Z,96854.16
2022-08-26T15:16:49.008Z,96844.63
2022-08-26T15:19:19.475Z,96837.97
2022-08-26T15:21:48.297Z,96838.88
2022-08-26T15:24:19.469Z,96840.28
2022-08-26T15:26:48.472Z,96845.59
2022-08-26T15:29:16.840Z,96847.06
2022-08-26T15:31:45.243Z,96831.94
2022-08-26T15:34:16.816Z,96837.59
2022-08-26T15:36:48.059Z,96831.31
2022-08-26T15:39:17.236Z,96828.41
2022-08-26T15:41:46.104Z,96827.91
2022-08-26T15:44:17.830Z,96831.81
2022-08-26T15:46:46.212Z,96827.59
2022-08-26T15:49:17.754Z,96833.91
2022-08-26T15:51:52.807Z,96830.16
2022-08-26T15:54:22.820Z,96829.69
2022-08-26T15:56:52.514Z,96823.25
2022-08-26T15:59:22.568Z,96821.84
2022-08-26T16:01:50.999Z,96826.59
2022-08-26T16:04:20.257Z,96823.47
2022-08-26T16:06:52.239Z,96823.69
2022-08-26T16:09:24.230Z,96824.00
2022-08-26T16:11:53.060Z,96816.50
2022-08-26T16:14:21.718Z,96813.00
2022-08-26T16:16:50.593Z,96813.56
2022-08-26T16:19:19.022Z,96821.34
2022-08-26T16:21:47.287Z,96817.44
2022-08-26T16:24:17.035Z,96815.53
2022-08-26T16:26:45.625Z,96812.78
2022-08-26T16:29:15.652Z,96821.84
2022-08-26T16:31:44.736Z,96813.75
2022-08-26T16:34:12.929Z,96816.56
2022-08-26T16:36:41.366Z,96826.94
2022-08-26T16:39:10.849Z,96828.75
2022-08-26T16:41:40.482Z,96824.84
2022-08-26T16:44:09.496Z,96823.53
2022-08-26T16:46:39.698Z,96824.63
2022-08-26T16:49:08.349Z,96825.56
2022-08-26T16:51:37.798Z,96827.00
2022-08-26T16:54:07.971Z,96825.84
2022-08-26T16:56:37.283Z,96825.41
2022-08-26T16:59:10.580Z,96827.03
2022-08-26T17:01:38.917Z,96836.13
2022-08-26T17:04:07.194Z,96825.50
2022-08-26T17:06:35.567Z,96828.69
2022-08-26T17:09:03.877Z,96831.44
2022-08-26T17:11:32.182Z,96833.16
2022-08-26T17:14:00.513Z,96833.31
2022-08-26T17:16:30.110Z,96827.56
2022-08-26T17:18:59.167Z,96831.75
2022-08-26T17:21:30.732Z,96822.72
2022-08-26T17:23:59.379Z,96838.81
2022-08-26T17:26:28.168Z,96840.03
2022-08-26T17:28:56.876Z,96840.59
2022-08-26T17:31:25.217Z,96837.19
2022-08-26T17:33:55.582Z,96840.84
2022-08-26T17:36:27.929Z,96837.22
2022-08-26T17:38:57.505Z,96841.09
2022-08-26T17:41:26.397Z,96842.66
2022-08-26T17:43:54.705Z,96848.81
2022-08-26T17:46:23.422Z,96845.78
2022-08-26T17:48:51.714Z,96849.81
2022-08-26T17:51:23.150Z,96849.31
2022-08-26T17:53:52.248Z,96849.25
2022-08-26T17:56:24.105Z,96856.88
2022-08-26T17:58:53.161Z,96850.94
2022-08-26T18:01:22.075Z,96851.69
2022-08-26T18:03:50.588Z,96859.94
2022-08-26T18:06:19.454Z,96852.19
2022-08-26T18:08:49.375Z,96861.50
2022-08-26T18:11:20.315Z,96860.59
2022-08-26T18:13:48.731Z,96867.28
2022-08-26T18:16:18.517Z,96862.53
2022-08-26T18:18:47.633Z,96865.41
2022-08-26T18:21:18.406Z,96874.00
2022-08-26T18:23:48.931Z,96874.41
2022-08-26T18:26:19.246Z,96881.25
2022-08-26T18:28:47.475Z,96878.56
2022-08-26T18:31:16.412Z,96885.97
2022-08-26T18:33:44.933Z,96884.81
2022-08-26T18:36:18.479Z,96879.50
2022-08-26T18:38:50.420Z,96879.53
2022-08-26T18:41:20.830Z,96888.94
2022-08-26T18:43:50.563Z,96887.06
2022-08-26T18:46:22.092Z,96892.88
2022-08-26T18:48:51.027Z,96904.50
2022-08-26T18:51:21.344Z,96896.50
2022-08-26T18:53:51.522Z,96892.16
2022-08-26T18:56:20.439Z,96898.56
2022-08-26T18:58:48.930Z,96896.38
2022-08-26T19:01:18.025Z,96892.66
2022-08-26T19:03:47.641Z,96905.03
2022-08-26T19:06:17.612Z,96902.19
2022-08-26T19:08:46.190Z,96911.91
2022-08-26T19:11:31.829Z,96911.34
2022-08-26T19:14:01.727Z,96916.78
2022-08-26T19:16:31.091Z,96923.25
2022-08-26T19:19:01.410Z,96923.53
2022-08-26T19:21:30.683Z,96919.94
2022-08-26T19:23:59.625Z,96923.91
2022-08-26T19:26:30.442Z,96925.31
2022-08-26T19:28:59.576Z,96921.81
2022-08-26T19:31:28.589Z,96924.72
2022-08-26T19:33:58.336Z,96940.59
2022-08-26T19:36:28.660Z,96933.09
2022-08-26T19:38:57.410Z,96933.56
2022-08-26T19:41:37.319Z,96939.81
2022-08-26T19:44:11.675Z,96943.97
2022-08-26T19:46:40.557Z,96948.00
2022-08-26T19:49:09.348Z,96951.16
2022-08-26T19:51:38.424Z,96958.28
2022-08-26T19:54:06.870Z,96952.63
2022-08-26T19:56:35.301Z,96949.34
2022-08-26T19:59:03.610Z,96945.81
2022-08-26T20:01:33.497Z,96945.44
2022-08-26T20:04:02.216Z,96938.97
2022-08-26T20:06:31.075Z,96937.84
2022-08-26T20:08:59.576Z,96938.31
2022-08-26T20:11:28.416Z,96931.44
2022-08-26T20:13:57.455Z,96935.19
2022-08-26T20:16:26.199Z,96932.09
2022-08-26T20:19:13.925Z,96932.44
2022-08-26T20:21:43.371Z,96931.38
2022-08-26T20:24:14.126Z,96933.97
2022-08-26T20:26:43.881Z,96931.44
2022-08-26T20:29:14.332Z,96928.19
2022-08-26T20:31:44.373Z,96925.28
2022-08-26T20:34:14.964Z,96926.22
2022-08-26T20:36:46.175Z,96926.34
2022-08-26T20:39:15.229Z,96926.78
2022-08-26T20:41:45.577Z,96931.47
2022-08-26T20:44:14.444Z,96934.63
2022-08-26T20:46:42.695Z,96929.97
2022-08-26T20:49:11.512Z,96928.84
2022-08-26T20:51:41.349Z,96931.25
2022-08-26T20:54:10.596Z,96941.84
2022-08-26T20:56:39.380Z,96930.75
2022-08-26T20:59:08.419Z,96935.13
2022-08-26T21:01:42.291Z,96931.50
2022-08-26T21:04:14.975Z,96935.72
2022-08-26T21:06:45.627Z,96941.75
2022-08-26T21:09:22.101Z,96934.09
2022-08-26T21:11:51.131Z,96934.66
2022-08-26T21:14:20.638Z,96933.06
2022-08-26T21:16:48.999Z,96939.72
2022-08-26T21:19:19.151Z,96926.56
2022-08-26T21:21:49.462Z,96935.97
2022-08-26T21:24:18.339Z,96939.16
2022-08-26T21:26:47.083Z,96937.06
2022-08-26T21:29:15.643Z,96937.78
2022-08-26T21:31:46.481Z,96928.97
2022-08-26T21:34:15.532Z,96935.53
2022-08-26T21:36:43.929Z,96940.19
2022-08-26T21:39:13.999Z,96934.88
2022-08-26T21:41:42.813Z,96936.53
2022-08-26T21:44:11.621Z,96943.38
2022-08-26T21:46:40.309Z,96944.97
2022-08-26T21:49:10.493Z,96939.84
2022-08-26T21:51:40.683Z,96940.78
2022-08-26T21:54:11.322Z,96945.34
2022-08-26T21:56:44.316Z,96950.97
2022-08-26T21:59:13.283Z,96937.56
2022-08-26T22:01:41.592Z,96931.69
2022-08-26T22:04:10.707Z,96936.94
2022-08-26T22:06:43.437Z,96935.84
2022-08-26T22:09:12.599Z,96927.31
2022-08-26T22:11:42.327Z,96930.78
2022-08-26T22:14:11.172Z,96930.88
2022-08-26T22:16:39.547Z,96933.34
2022-08-26T22:19:08.147Z,96930.56
2022-08-26T22:21:40.757Z,96929.34
2022-08-26T22:24:12.217Z,96926.00
2022-08-26T22:26:42.109Z,96925.13
2022-08-26T22:29:10.449Z,96924.94
2022-08-26T22:31:39.746Z,96926.00
2022-08-26T22:34:10.734Z,96924.13
2022-08-26T22:36:43.180Z,96920.25
2022-08-26T22:39:13.492Z,96918.22
2022-08-26T22:41:44.140Z,96925.72
2022-08-26T22:44:12.852Z,96927.66
2022-08-26T22:46:41.884Z,96922.22
2022-08-26T22:49:10.398Z,96924.34
2022-08-26T22:51:38.914Z,96920.22
2022-08-26T22:54:08.038Z,96919.84
2022-08-26T22:56:36.837Z,96922.25
2022-08-26T22:59:08.040Z,96923.09
2022-08-26T23:01:37.689Z,96920.41
2022-08-26T23:04:07.442Z,96921.41
2022-08-26T23:06:37.629Z,96916.97
2022-08-26T23:09:06.798Z,96918.94
2022-08-26T23:11:35.139Z,96913.72
2022-08-26T23:14:06.443Z,96911.94
2022-08-26T23:16:39.219Z,96912.22
2022-08-26T23:19:09.197Z,96912.97
2022-08-26T23:21:37.473Z,96910.31
2022-08-26T23:24:06.842Z,96906.31
2022-08-26T23:26:35.770Z,96903.69
2022-08-26T23:29:05.055Z,96906.25
2022-08-26T23:31:34.071Z,96908.69
2022-08-26T23:34:21.303Z,96903.47
2022-08-26T23:36:49.668Z,96906.00
2022-08-26T23:39:17.985Z,96911.16
2022-08-26T23:41:46.456Z,96910.09
2022-08-26T23:44:14.715Z,96909.91
2022-08-26T23:46:42.962Z,96906.19
2022-08-26T23:49:12.599Z,96904.25
2022-08-26T23:51:58.426Z,96900.13
2022-08-26T23:54:26.852Z,96900.22
2022-08-26T23:56:55.148Z,96894.72
2022-08-26T23:59:24.265Z,96906.22
